createdAt,value
2018-03-11T00:00:54.929Z,99869.95
2018-03-11T00:03:22.580Z,99868.89
2018-03-11T00:05:50.082Z,99864.22
2018-03-11T00:08:17.683Z,99863.89
2018-03-11T00:10:45.200Z,99866.22
2018-03-11T00:13:12.764Z,99865.30
2018-03-11T00:15:40.328Z,99867.45
2018-03-11T00:18:07.852Z,99868.28
2018-03-11T00:20:35.379Z,99868.70
2018-03-11T00:23:02.934Z,99866.73
2018-03-11T00:25:30.425Z,99873.19
2018-03-11T00:27:57.962Z,99867.78
2018-03-11T00:30:25.547Z,99871.65
2018-03-11T00:32:53.051Z,99870.34
2018-03-11T00:35:20.702Z,99868.30
2018-03-11T00:37:48.241Z,99864.82
2018-03-11T00:40:15.752Z,99864.52
2018-03-11T00:42:43.287Z,99864.86
2018-03-11T00:45:10.815Z,99862.07
2018-03-11T00:47:38.323Z,99856.84
2018-03-11T00:50:05.834Z,99858.77
2018-03-11T00:52:33.376Z,99853.39
2018-03-11T00:55:00.899Z,99854.31
2018-03-11T00:57:29.252Z,99846.64
2018-03-11T00:59:56.792Z,99844.09
2018-03-11T01:02:24.362Z,99842.80
2018-03-11T01:04:51.940Z,99837.72
2018-03-11T01:07:19.540Z,99834.24
2018-03-11T01:09:47.326Z,99832.91
2018-03-11T01:12:14.840Z,99826.66
2018-03-11T01:14:42.400Z,99823.81
2018-03-11T01:17:09.931Z,99829.13
2018-03-11T01:19:37.455Z,99824.63
2018-03-11T01:22:05.444Z,99832.05
2018-03-11T01:24:33.024Z,99833.42
2018-03-11T01:27:00.528Z,99831.04
2018-03-11T01:29:28.142Z,99826.78
2018-03-11T01:31:55.752Z,99825.14
2018-03-11T01:34:23.272Z,99820.45
2018-03-11T01:36:51.138Z,99823.61
2018-03-11T01:39:18.671Z,99820.58
2018-03-11T01:41:46.169Z,99824.14
2018-03-11T01:44:13.705Z,99820.81
2018-03-11T01:46:41.308Z,99830.63
2018-03-11T01:49:08.868Z,99826.31
2018-03-11T01:51:36.422Z,99829.78
2018-03-11T01:54:03.949Z,99832.64
2018-03-11T01:56:31.811Z,99831.16
2018-03-11T01:58:59.354Z,99831.02
2018-03-11T02:01:26.931Z,99832.72
2018-03-11T02:03:54.431Z,99832.39
2018-03-11T02:06:22.001Z,99831.66
2018-03-11T02:08:49.558Z,99831.33
2018-03-11T02:11:17.066Z,99829.30
2018-03-11T02:13:44.656Z,99829.89
2018-03-11T02:16:12.188Z,99824.94
2018-03-11T02:18:39.704Z,99816.88
2018-03-11T02:21:17.268Z,99817.63
2018-03-11T02:23:44.760Z,99816.69
2018-03-11T02:26:12.254Z,99816.38
2018-03-11T02:28:39.966Z,99808.25
2018-03-11T02:31:07.510Z,99814.53
2018-03-11T02:33:35.030Z,99808.55
2018-03-11T02:36:02.566Z,99807.42
2018-03-11T02:38:30.093Z,99806.08
2018-03-11T02:40:58.034Z,99810.39
2018-03-11T02:43:25.554Z,99810.06
2018-03-11T02:45:53.096Z,99806.44
2018-03-11T02:48:20.603Z,99804.19
2018-03-11T02:50:48.296Z,99803.25
2018-03-11T02:53:15.874Z,99805.59
2018-03-11T02:55:43.546Z,99806.55
2018-03-11T02:58:11.177Z,99801.05
2018-03-11T03:00:39.031Z,99803.55
2018-03-11T03:03:06.601Z,99800.20
2018-03-11T03:05:34.164Z,99799.05
2018-03-11T03:08:01.658Z,99801.03
2018-03-11T03:10:29.199Z,99805.52
2018-03-11T03:12:56.809Z,99801.75
2018-03-11T03:15:24.392Z,99808.61
2018-03-11T03:17:51.903Z,99799.30
2018-03-11T03:20:19.413Z,99793.45
2018-03-11T03:22:46.935Z,99790.94
2018-03-11T03:25:14.504Z,99788.70
2018-03-11T03:27:42.040Z,99787.20
2018-03-11T03:30:09.860Z,99794.70
2018-03-11T03:32:37.405Z,99788.44
2018-03-11T03:35:04.964Z,99787.70
2018-03-11T03:37:32.519Z,99785.86
2018-03-11T03:40:00.071Z,99785.30
2018-03-11T03:42:27.605Z,99777.83
2018-03-11T03:44:55.428Z,99778.83
2018-03-11T03:47:22.957Z,99788.95
2018-03-11T03:49:50.518Z,99788.14
2018-03-11T03:52:18.096Z,99792.92
2018-03-11T03:54:45.593Z,99797.09
2018-03-11T03:57:13.131Z,99794.50
2018-03-11T03:59:40.656Z,99796.09
2018-03-11T04:02:08.185Z,99798.76
2018-03-11T04:04:35.674Z,99796.52
2018-03-11T04:07:03.258Z,99792.89
2018-03-11T04:09:30.784Z,99789.38
2018-03-11T04:11:58.533Z,99782.55
2018-03-11T04:14:26.058Z,99782.25
2018-03-11T04:16:53.607Z,99777.82
2018-03-11T04:19:21.116Z,99775.44
2018-03-11T04:21:48.939Z,99776.25
2018-03-11T04:24:16.538Z,99778.09
2018-03-11T04:26:44.382Z,99780.83
2018-03-11T04:29:12.240Z,99774.34
2018-03-11T04:31:39.775Z,99775.02
2018-03-11T04:34:08.596Z,99768.28
2018-03-11T04:36:36.360Z,99771.86
2018-03-11T04:39:04.220Z,99773.03
2018-03-11T04:41:31.752Z,99767.10
2018-03-11T04:43:59.357Z,99768.11
2018-03-11T04:46:26.949Z,99769.59
2018-03-11T04:48:54.796Z,99766.30
2018-03-11T04:51:22.350Z,99761.72
2018-03-11T04:53:49.858Z,99768.83
2018-03-11T04:56:17.401Z,99767.42
2018-03-11T04:58:44.928Z,99765.36
2018-03-11T05:01:12.618Z,99763.06
2018-03-11T05:03:40.146Z,99762.91
2018-03-11T05:06:07.714Z,99758.77
2018-03-11T05:08:35.244Z,99761.31
2018-03-11T05:11:02.794Z,99764.27
2018-03-11T05:13:30.336Z,99754.62
2018-03-11T05:15:57.944Z,99759.52
2018-03-11T05:18:25.469Z,99750.80
2018-03-11T05:20:53.088Z,99753.47
2018-03-11T05:23:20.932Z,99751.38
2018-03-11T05:25:48.442Z,99743.67
2018-03-11T05:28:16.028Z,99753.53
2018-03-11T05:30:43.564Z,99749.95
2018-03-11T05:33:11.081Z,99754.86
2018-03-11T05:35:38.657Z,99745.97
2018-03-11T05:38:06.179Z,99746.09
2018-03-11T05:40:33.676Z,99743.52
2018-03-11T05:43:01.194Z,99739.27
2018-03-11T05:45:28.985Z,99735.60
2018-03-11T05:47:56.771Z,99737.61
2018-03-11T05:50:24.266Z,99735.88
2018-03-11T05:52:51.804Z,99741.83
2018-03-11T05:55:19.634Z,99740.34
2018-03-11T05:57:47.230Z,99743.56
2018-03-11T06:00:14.742Z,99747.22
2018-03-11T06:02:42.354Z,99748.19
2018-03-11T06:05:10.306Z,99742.06
2018-03-11T06:07:37.887Z,99744.89
2018-03-11T06:10:05.523Z,99741.39
2018-03-11T06:12:33.052Z,99746.62
2018-03-11T06:15:00.843Z,99744.78
2018-03-11T06:17:28.475Z,99738.88
2018-03-11T06:19:56.063Z,99739.36
2018-03-11T06:22:23.622Z,99735.54
2018-03-11T06:24:51.390Z,99736.98
2018-03-11T06:27:18.932Z,99730.02
2018-03-11T06:29:46.485Z,99728.92
2018-03-11T06:32:13.999Z,99723.94
2018-03-11T06:34:41.496Z,99726.22
2018-03-11T06:37:09.043Z,99727.91
2018-03-11T06:39:36.546Z,99726.47
2018-03-11T06:42:07.911Z,99726.15
2018-03-11T06:44:35.449Z,99724.41
2018-03-11T06:47:02.984Z,99728.61
2018-03-11T06:49:30.805Z,99734.08
2018-03-11T06:51:58.333Z,99735.03
2018-03-11T06:54:25.851Z,99741.13
2018-03-11T06:56:53.350Z,99742.08
2018-03-11T06:59:20.867Z,99739.84
2018-03-11T07:01:48.689Z,99739.19
2018-03-11T07:04:16.282Z,99729.84
2018-03-11T07:06:44.111Z,99732.38
2018-03-11T07:09:12.318Z,99732.73
2018-03-11T07:11:39.824Z,99725.81
2018-03-11T07:14:08.246Z,99726.73
2018-03-11T07:16:35.874Z,99727.78
2018-03-11T07:19:03.411Z,99733.14
2018-03-11T07:21:30.935Z,99731.69
2018-03-11T07:23:58.480Z,99731.50
2018-03-11T07:26:26.026Z,99728.39
2018-03-11T07:28:53.794Z,99725.38
2018-03-11T07:31:21.311Z,99737.26
2018-03-11T07:33:48.832Z,99730.83
2018-03-11T07:36:16.353Z,99733.66
2018-03-11T07:38:43.889Z,99728.16
2018-03-11T07:41:11.398Z,99728.88
2018-03-11T07:43:38.950Z,99726.58
2018-03-11T07:46:06.636Z,99722.42
2018-03-11T07:48:34.164Z,99716.73
2018-03-11T07:51:01.665Z,99723.94
2018-03-11T07:53:29.256Z,99721.33
2018-03-11T07:55:56.770Z,99724.95
2018-03-11T07:58:24.332Z,99724.50
2018-03-11T08:00:51.877Z,99719.72
2018-03-11T08:03:19.416Z,99724.83
2018-03-11T08:05:47.277Z,99720.98
2018-03-11T08:08:14.870Z,99720.03
2018-03-11T08:10:42.379Z,99721.09
2018-03-11T08:13:10.104Z,99726.89
2018-03-11T08:15:37.690Z,99725.44
2018-03-11T08:18:06.189Z,99725.16
2018-03-11T08:20:33.809Z,99724.65
2018-03-11T08:23:02.396Z,99721.68
2018-03-11T08:25:29.906Z,99724.98
2018-03-11T08:27:57.431Z,99724.50
2018-03-11T08:30:24.992Z,99725.63
2018-03-11T08:32:52.565Z,99728.72
2018-03-11T08:35:20.132Z,99714.72
2018-03-11T08:37:48.304Z,99709.23
2018-03-11T08:40:16.068Z,99707.20
2018-03-11T08:42:44.007Z,99711.23
2018-03-11T08:45:11.542Z,99710.13
2018-03-11T08:47:39.044Z,99704.13
2018-03-11T08:50:06.597Z,99703.20
2018-03-11T08:52:34.455Z,99701.84
2018-03-11T08:55:01.997Z,99693.50
2018-03-11T08:57:29.624Z,99699.50
2018-03-11T08:59:57.180Z,99697.47
2018-03-11T09:02:25.103Z,99703.71
2018-03-11T09:04:52.673Z,99698.81
2018-03-11T09:07:20.345Z,99703.49
2018-03-11T09:09:48.017Z,99705.54
2018-03-11T09:12:15.710Z,99704.98
2018-03-11T09:14:43.249Z,99707.12
2018-03-11T09:17:13.192Z,99704.02
2018-03-11T09:19:41.418Z,99696.30
2018-03-11T09:22:08.964Z,99710.97
2018-03-11T09:24:36.506Z,99704.27
2018-03-11T09:27:04.049Z,99699.17
2018-03-11T09:29:31.645Z,99698.03
2018-03-11T09:31:59.176Z,99694.37
2018-03-11T09:34:26.737Z,99687.78
2018-03-11T09:36:54.377Z,99686.86
2018-03-11T09:39:22.201Z,99688.30
2018-03-11T09:41:49.789Z,99683.80
2018-03-11T09:44:17.316Z,99676.55
2018-03-11T09:46:44.894Z,99673.87
2018-03-11T09:49:12.449Z,99671.82
2018-03-11T09:51:40.010Z,99668.59
2018-03-11T09:54:09.459Z,99664.63
2018-03-11T09:56:37.005Z,99662.86
2018-03-11T09:59:04.592Z,99652.33
2018-03-11T10:01:32.219Z,99659.77
2018-03-11T10:03:59.848Z,99658.01
2018-03-11T10:06:27.364Z,99653.47
2018-03-11T10:08:55.182Z,99650.91
2018-03-11T10:11:22.988Z,99651.31
2018-03-11T10:13:51.212Z,99657.20
2018-03-11T10:16:18.857Z,99650.42
2018-03-11T10:18:46.471Z,99654.85
2018-03-11T10:21:14.028Z,99658.91
2018-03-11T10:23:41.650Z,99657.43
2018-03-11T10:26:09.773Z,99663.86
2018-03-11T10:28:37.286Z,99657.58
2018-03-11T10:31:04.824Z,99649.53
2018-03-11T10:33:32.401Z,99658.36
2018-03-11T10:36:00.314Z,99642.32
2018-03-11T10:38:27.896Z,99643.19
2018-03-11T10:40:55.428Z,99639.68
2018-03-11T10:43:23.013Z,99636.21
2018-03-11T10:45:51.365Z,99635.52
2018-03-11T10:48:19.034Z,99631.35
2018-03-11T10:50:46.587Z,99625.08
2018-03-11T10:53:14.172Z,99615.84
2018-03-11T10:55:41.709Z,99599.92
2018-03-11T10:58:09.309Z,99596.72
2018-03-11T11:00:43.416Z,99590.07
2018-03-11T11:06:12.187Z,99585.62
2018-03-11T11:08:39.717Z,99579.72
2018-03-11T11:11:07.619Z,99582.00
2018-03-11T11:13:35.434Z,99583.34
2018-03-11T11:16:02.959Z,99568.00
2018-03-11T11:18:30.553Z,99568.61
2018-03-11T11:20:58.117Z,99569.75
2018-03-11T11:23:25.627Z,99562.03
2018-03-11T11:25:53.175Z,99569.13
2018-03-11T11:28:20.703Z,99567.94
2018-03-11T11:30:48.226Z,99564.66
2018-03-11T11:33:16.074Z,99556.48
2018-03-11T11:35:43.641Z,99554.14
2018-03-11T11:38:11.265Z,99557.72
2018-03-11T11:40:38.960Z,99558.84
2018-03-11T11:43:06.522Z,99550.91
2018-03-11T11:45:34.162Z,99545.39
2018-03-11T11:48:01.703Z,99543.55
2018-03-11T11:50:29.736Z,99545.85
2018-03-11T11:52:57.292Z,99547.52
2018-03-11T11:55:25.136Z,99550.31
2018-03-11T11:57:53.008Z,99535.25
2018-03-11T12:00:20.536Z,99533.19
2018-03-11T12:02:48.065Z,99527.52
2018-03-11T12:05:15.592Z,99510.14
2018-03-11T12:07:43.109Z,99515.91
2018-03-11T12:10:11.008Z,99511.19
2018-03-11T12:12:38.545Z,99503.59
2018-03-11T12:15:06.049Z,99499.99
2018-03-11T12:17:33.603Z,99480.45
2018-03-11T12:20:01.130Z,99467.72
2018-03-11T12:22:28.673Z,99469.34
2018-03-11T12:24:56.237Z,99462.83
2018-03-11T12:27:23.815Z,99464.93
2018-03-11T12:29:51.341Z,99462.01
2018-03-11T12:32:18.880Z,99450.59
2018-03-11T12:34:46.396Z,99445.41
2018-03-11T12:37:13.932Z,99441.20
2018-03-11T12:39:41.459Z,99441.53
2018-03-11T12:42:09.016Z,99436.36
2018-03-11T12:44:36.775Z,99435.41
2018-03-11T12:47:04.389Z,99447.77
2018-03-11T12:49:31.917Z,99441.08
2018-03-11T12:51:59.491Z,99453.55
2018-03-11T12:54:27.065Z,99458.11
2018-03-11T12:56:54.873Z,99447.15
2018-03-11T12:59:22.657Z,99440.53
2018-03-11T13:01:50.223Z,99434.98
2018-03-11T13:04:17.742Z,99439.34
2018-03-11T13:06:45.284Z,99444.16
2018-03-11T13:09:12.813Z,99452.65
2018-03-11T13:11:40.384Z,99451.11
2018-03-11T13:14:07.934Z,99449.39
2018-03-11T13:16:35.449Z,99444.91
2018-03-11T13:19:02.981Z,99426.62
2018-03-11T13:21:30.501Z,99423.38
2018-03-11T13:23:58.373Z,99418.97
2018-03-11T13:26:26.705Z,99418.75
2018-03-11T13:28:54.264Z,99416.77
2018-03-11T13:31:21.857Z,99415.28
2018-03-11T13:34:01.205Z,99399.41
2018-03-11T13:36:29.061Z,99405.41
2018-03-11T13:39:08.446Z,99399.42
2018-03-11T13:41:35.964Z,99401.27
2018-03-11T13:44:03.585Z,99402.84
2018-03-11T13:49:26.008Z,99403.75
2018-03-11T13:54:56.267Z,99423.45
2018-03-11T14:00:34.975Z,99407.69
2018-03-11T14:03:02.540Z,99398.30
2018-03-11T14:05:30.124Z,99398.11
2018-03-11T14:07:57.692Z,99412.27
2018-03-11T14:10:25.222Z,99402.87
2018-03-11T14:12:52.739Z,99402.80
2018-03-11T14:15:20.282Z,99406.23
2018-03-11T14:17:47.826Z,99396.99
2018-03-11T14:20:15.405Z,99391.52
2018-03-11T14:22:42.938Z,99384.10
2018-03-11T14:25:10.479Z,99376.23
2018-03-11T14:27:38.661Z,99374.01
2018-03-11T14:30:06.260Z,99374.83
2018-03-11T14:32:34.073Z,99356.56
2018-03-11T14:35:01.700Z,99355.34
2018-03-11T14:37:29.281Z,99346.91
2018-03-11T14:39:56.864Z,99347.40
2018-03-11T14:42:24.398Z,99350.72
2018-03-11T14:44:51.926Z,99340.13
2018-03-11T14:47:19.554Z,99331.30
2018-03-11T14:49:47.135Z,99321.28
2018-03-11T14:52:14.650Z,99308.71
2018-03-11T14:54:42.196Z,99314.11
2018-03-11T14:57:09.772Z,99307.09
2018-03-11T14:59:37.395Z,99308.95
2018-03-11T15:02:04.919Z,99304.95
2018-03-11T15:04:33.202Z,99301.47
2018-03-11T15:07:00.767Z,99300.80
2018-03-11T15:09:28.339Z,99298.50
2018-03-11T15:11:55.855Z,99294.04
2018-03-11T15:14:23.661Z,99293.67
2018-03-11T15:16:51.169Z,99300.01
2018-03-11T15:19:18.935Z,99303.97
2018-03-11T15:21:46.482Z,99299.44
2018-03-11T15:24:14.023Z,99304.91
2018-03-11T15:26:41.566Z,99304.58
2018-03-11T15:29:09.135Z,99298.17
2018-03-11T15:31:37.513Z,99290.28
2018-03-11T15:34:05.123Z,99287.08
2018-03-11T15:36:32.680Z,99287.95
2018-03-11T15:39:00.465Z,99281.81
2018-03-11T15:41:28.040Z,99289.34
2018-03-11T15:43:55.617Z,99289.58
2018-03-11T15:46:23.456Z,99295.80
2018-03-11T15:48:51.228Z,99292.41
2018-03-11T15:51:18.937Z,99293.78
2018-03-11T15:53:46.479Z,99296.48
2018-03-11T15:56:14.041Z,99294.74
2018-03-11T15:58:41.870Z,99283.62
2018-03-11T16:01:09.395Z,99283.44
2018-03-11T16:03:36.966Z,99278.63
2018-03-11T16:06:04.560Z,99269.41
2018-03-11T16:08:32.071Z,99275.95
2018-03-11T16:10:59.705Z,99274.66
2018-03-11T16:13:27.229Z,99269.23
2018-03-11T16:15:54.856Z,99259.38
2018-03-11T16:18:22.377Z,99255.33
2018-03-11T16:20:50.146Z,99262.84
2018-03-11T16:23:17.675Z,99260.76
2018-03-11T16:25:45.217Z,99265.74
2018-03-11T16:28:12.808Z,99260.19
2018-03-11T16:30:40.815Z,99258.80
2018-03-11T16:33:08.656Z,99249.94
2018-03-11T16:35:36.202Z,99249.73
2018-03-11T16:38:03.741Z,99251.28
2018-03-11T16:40:31.315Z,99256.28
2018-03-11T16:43:00.090Z,99255.82
2018-03-11T16:45:27.674Z,99256.17
2018-03-11T16:47:55.973Z,99260.00
2018-03-11T16:50:24.295Z,99267.61
2018-03-11T16:52:51.843Z,99268.33
2018-03-11T16:55:19.537Z,99270.19
2018-03-11T16:57:47.114Z,99264.00
2018-03-11T17:00:14.755Z,99268.74
2018-03-11T17:02:42.358Z,99285.01
2018-03-11T17:05:10.034Z,99287.70
2018-03-11T17:07:37.561Z,99284.84
2018-03-11T17:10:05.196Z,99282.49
2018-03-11T17:12:32.772Z,99283.43
2018-03-11T17:15:00.305Z,99289.55
2018-03-11T17:17:27.825Z,99281.92
2018-03-11T17:19:55.392Z,99274.39
2018-03-11T17:22:23.005Z,99260.40
2018-03-11T17:24:50.578Z,99272.34
2018-03-11T17:27:18.119Z,99260.37
2018-03-11T17:29:45.664Z,99265.51
2018-03-11T17:32:13.237Z,99279.41
2018-03-11T17:34:40.745Z,99281.75
2018-03-11T17:37:08.300Z,99283.69
2018-03-11T17:39:36.544Z,99279.75
2018-03-11T17:42:04.146Z,99278.47
2018-03-11T17:44:31.669Z,99278.22
2018-03-11T17:46:59.578Z,99276.29
2018-03-11T17:49:27.369Z,99279.05
2018-03-11T17:51:54.997Z,99275.22
2018-03-11T17:54:22.534Z,99278.62
2018-03-11T17:56:50.094Z,99285.72
2018-03-11T17:59:17.617Z,99281.07
2018-03-11T18:01:45.181Z,99284.14
2018-03-11T18:04:12.710Z,99283.44
2018-03-11T18:06:40.274Z,99281.05
2018-03-11T18:09:07.782Z,99279.28
2018-03-11T18:11:35.681Z,99282.61
2018-03-11T18:14:03.563Z,99276.09
2018-03-11T18:16:31.094Z,99270.85
2018-03-11T18:18:58.629Z,99263.85
2018-03-11T18:21:26.289Z,99264.30
2018-03-11T18:23:53.807Z,99264.53
2018-03-11T18:26:21.619Z,99265.47
2018-03-11T18:28:49.523Z,99258.96
2018-03-11T18:31:17.064Z,99254.47
2018-03-11T18:33:44.592Z,99254.64
2018-03-11T18:36:12.153Z,99261.56
2018-03-11T18:38:39.728Z,99255.55
2018-03-11T18:41:07.364Z,99253.25
2018-03-11T18:43:35.290Z,99252.11
2018-03-11T18:46:02.954Z,99248.58
2018-03-11T18:48:30.974Z,99247.88
2018-03-11T18:50:58.584Z,99253.31
2018-03-11T18:53:26.202Z,99245.84
2018-03-11T18:55:53.779Z,99249.08
2018-03-11T18:58:21.446Z,99244.64
2018-03-11T19:00:49.253Z,99246.98
2018-03-11T19:03:16.817Z,99233.16
2018-03-11T19:05:44.350Z,99235.45
2018-03-11T19:08:11.937Z,99229.91
2018-03-11T19:10:39.454Z,99226.94
2018-03-11T19:13:07.030Z,99225.91
2018-03-11T19:15:34.550Z,99233.14
2018-03-11T19:18:02.104Z,99229.59
2018-03-11T19:20:29.657Z,99228.48
2018-03-11T19:22:57.201Z,99225.23
2018-03-11T19:25:24.880Z,99224.60
2018-03-11T19:27:52.419Z,99213.88
2018-03-11T19:30:19.928Z,99211.24
2018-03-11T19:32:47.486Z,99206.13
2018-03-11T19:35:15.072Z,99204.91
2018-03-11T19:37:42.753Z,99205.41
2018-03-11T19:40:10.310Z,99199.92
2018-03-11T19:42:38.005Z,99207.00
2018-03-11T19:45:05.555Z,99202.15
2018-03-11T19:47:34.252Z,99203.38
2018-03-11T19:50:01.776Z,99202.30
2018-03-11T19:52:29.293Z,99199.32
2018-03-11T19:54:56.808Z,99205.38
2018-03-11T19:57:24.368Z,99201.35
2018-03-11T19:59:51.890Z,99203.16
2018-03-11T20:02:19.511Z,99200.72
2018-03-11T20:04:47.037Z,99197.83
2018-03-11T20:07:14.632Z,99197.06
2018-03-11T20:09:42.159Z,99196.55
2018-03-11T20:12:09.705Z,99195.11
2018-03-11T20:14:37.240Z,99190.31
2018-03-11T20:17:04.761Z,99189.45
2018-03-11T20:19:32.305Z,99191.65
2018-03-11T20:21:59.845Z,99186.89
2018-03-11T20:24:27.558Z,99187.02
2018-03-11T20:26:56.144Z,99186.91
2018-03-11T20:29:23.658Z,99183.34
2018-03-11T20:31:51.254Z,99181.61
2018-03-11T20:34:18.777Z,99179.64
2018-03-11T20:36:46.314Z,99181.80
2018-03-11T20:39:14.239Z,99182.48
2018-03-11T20:41:41.895Z,99180.55
2018-03-11T20:44:09.423Z,99179.91
2018-03-11T20:46:36.984Z,99177.09
2018-03-11T20:49:05.284Z,99181.89
2018-03-11T20:51:32.792Z,99172.90
2018-03-11T20:54:00.447Z,99170.56
2018-03-11T20:56:27.965Z,99173.81
2018-03-11T20:58:55.745Z,99174.33
2018-03-11T21:01:23.245Z,99172.36
2018-03-11T21:03:51.110Z,99169.06
2018-03-11T21:06:19.516Z,99155.94
2018-03-11T21:08:47.130Z,99160.44
2018-03-11T21:11:14.741Z,99157.35
2018-03-11T21:13:42.988Z,99154.66
2018-03-11T21:16:10.552Z,99154.10
2018-03-11T21:18:38.484Z,99143.39
2018-03-11T21:21:06.045Z,99136.66
2018-03-11T21:23:33.558Z,99137.70
2018-03-11T21:26:01.194Z,99128.56
2018-03-11T21:28:28.746Z,99126.59
2018-03-11T21:30:56.712Z,99132.69
2018-03-11T21:33:25.096Z,99127.75
2018-03-11T21:35:52.945Z,99129.78
2018-03-11T21:38:20.514Z,99127.45
2018-03-11T21:40:48.190Z,99121.21
2018-03-11T21:46:46.253Z,99119.43
2018-03-11T21:49:13.855Z,99114.59
2018-03-11T21:51:41.425Z,99122.44
2018-03-11T21:54:09.255Z,99122.03
2018-03-11T21:56:36.787Z,99106.91
2018-03-11T21:59:04.313Z,99112.19
2018-03-11T22:01:31.842Z,99106.13
2018-03-11T22:04:00.513Z,99101.00
2018-03-11T22:06:28.091Z,99102.30
2018-03-11T22:08:56.056Z,99105.02
2018-03-11T22:11:23.968Z,99109.41
2018-03-11T22:13:51.788Z,99108.73
2018-03-11T22:16:19.322Z,99110.85
2018-03-11T22:18:47.889Z,99112.00
2018-03-11T22:21:15.494Z,99108.88
2018-03-11T22:23:43.105Z,99103.39
2018-03-11T22:26:10.626Z,99098.22
2018-03-11T22:28:38.162Z,99098.55
2018-03-11T22:31:06.386Z,99101.30
2018-03-11T22:33:33.942Z,99102.67
2018-03-11T22:36:01.457Z,99105.76
2018-03-11T22:38:29.006Z,99098.73
2018-03-11T22:40:56.524Z,99100.55
2018-03-11T22:43:24.077Z,99101.34
2018-03-11T22:45:52.285Z,99099.06
2018-03-11T22:48:19.828Z,99100.55
2018-03-11T22:50:47.419Z,99098.77
2018-03-11T22:53:14.947Z,99093.75
2018-03-11T22:55:42.452Z,99090.55
2018-03-11T22:58:10.027Z,99089.25
2018-03-11T23:00:37.567Z,99081.00
2018-03-11T23:03:05.100Z,99082.62
2018-03-11T23:05:32.634Z,99084.63
2018-03-11T23:08:00.486Z,99069.17
2018-03-11T23:10:28.013Z,99061.08
2018-03-11T23:12:55.539Z,99061.67
2018-03-11T23:15:23.036Z,99058.89
2018-03-11T23:17:50.580Z,99061.78
2018-03-11T23:20:18.306Z,99050.91
2018-03-11T23:22:45.838Z,99059.34
2018-03-11T23:25:13.363Z,99058.17
2018-03-11T23:27:40.925Z,99053.87
2018-03-11T23:30:08.578Z,99054.61
2018-03-11T23:32:36.094Z,99048.41
2018-03-11T23:35:03.632Z,99055.83
2018-03-11T23:37:31.162Z,99055.34
2018-03-11T23:39:58.671Z,99043.02
2018-03-11T23:42:26.175Z,99037.33
2018-03-11T23:44:53.697Z,99035.25
2018-03-11T23:47:21.244Z,99035.25
2018-03-11T23:49:48.785Z,99033.95
2018-03-11T23:52:16.286Z,99031.69
2018-03-11T23:54:43.822Z,99034.77
2018-03-11T23:57:11.338Z,99037.62
2018-03-11T23:59:38.892Z,99036.91
